Time;durP1;ratioP1;P1;durP2;ratioP2;P2;SDS_P1;SDS_P2;PMS_P1;PMS_P2;Temp;Humidity;BMP_temperature;BMP_pressure;BME280_temperature;BME280_humidity;BME280_pressure;Samples;Min_cycle;Max_cycle;Signal;HPM_P1;HPM_P2
2023/06/29 00:01:48;;;;;;;1.00;0.90;;;16.10;84.80;;;;;;5055469;28;20035;-77
2023/06/29 00:04:18;;;;;;;1.00;1.00;;;16.10;85.00;;;;;;5075496;28;20044;-76
2023/06/29 00:06:44;;;;;;;1.40;1.30;;;16.00;85.30;;;;;;5075135;28;20075;-75
2023/06/29 00:09:09;;;;;;;1.95;1.45;;;16.00;85.40;;;;;;5072384;28;20037;-76
2023/06/29 00:11:36;;;;;;;0.80;0.80;;;16.00;85.70;;;;;;5052372;28;20052;-77
2023/06/29 00:14:02;;;;;;;0.82;0.80;;;16.00;85.90;;;;;;5051453;28;20078;-77
2023/06/29 00:16:30;;;;;;;1.23;1.13;;;16.00;86.00;;;;;;5052073;28;20103;-76
2023/06/29 00:18:56;;;;;;;1.00;1.00;;;16.00;86.20;;;;;;5035324;28;20054;-76
2023/06/29 00:21:21;;;;;;;1.08;0.98;;;15.90;86.30;;;;;;5052191;28;20033;-77
2023/06/29 00:23:47;;;;;;;0.90;0.90;;;15.90;86.60;;;;;;5057590;28;20178;-77
2023/06/29 00:26:16;;;;;;;0.80;0.70;;;15.90;86.70;;;;;;5051771;28;20414;-77
2023/06/29 00:28:41;;;;;;;0.90;0.90;;;15.80;86.90;;;;;;5052720;28;20017;-77
2023/06/29 00:31:07;;;;;;;1.30;1.20;;;15.80;87.50;;;;;;5053270;28;20086;-78
2023/06/29 00:33:33;;;;;;;1.00;1.00;;;15.70;87.80;;;;;;5052662;28;20044;-76
2023/06/29 00:35:58;;;;;;;1.23;1.13;;;15.70;88.20;;;;;;5034076;28;20033;-76
2023/06/29 00:38:24;;;;;;;1.33;1.27;;;15.60;88.30;;;;;;5052777;28;20098;-76
2023/06/29 00:40:49;;;;;;;1.05;1.00;;;15.60;88.60;;;;;;5035563;28;20462;-76
2023/06/29 00:43:15;;;;;;;1.30;1.10;;;15.60;88.70;;;;;;5034884;28;20028;-76
2023/06/29 00:45:41;;;;;;;1.05;1.05;;;15.60;89.00;;;;;;5052209;28;20029;-77
2023/06/29 00:48:07;;;;;;;0.98;0.90;;;15.50;89.10;;;;;;5034652;28;20032;-76
2023/06/29 00:50:33;;;;;;;1.20;1.10;;;15.50;89.30;;;;;;5059614;28;20081;-77
2023/06/29 00:52:59;;;;;;;0.98;0.95;;;15.50;89.50;;;;;;5065775;28;20183;-76
2023/06/29 00:55:25;;;;;;;1.08;1.08;;;15.50;89.60;;;;;;5092429;28;20077;-76
2023/06/29 00:57:50;;;;;;;1.30;1.20;;;15.50;89.80;;;;;;5080681;28;20035;-77
2023/06/29 01:00:16;;;;;;;1.40;1.30;;;15.50;90.00;;;;;;5073422;28;20027;-77
2023/06/29 01:02:42;;;;;;;1.08;1.02;;;15.50;90.10;;;;;;5073017;28;20474;-77
2023/06/29 01:05:12;;;;;;;1.10;1.10;;;15.50;90.00;;;;;;5072530;28;20025;-77
2023/06/29 01:08:16;;;;;;;1.15;1.15;;;15.40;90.00;;;;;;5073102;28;20070;-76
2023/06/29 01:10:45;;;;;;;0.93;0.82;;;15.30;90.10;;;;;;5025740;28;20032;-78
2023/06/29 01:13:13;;;;;;;1.23;1.10;;;15.30;90.20;;;;;;5080248;28;20056;-76
2023/06/29 01:15:40;;;;;;;1.17;1.05;;;15.20;90.40;;;;;;5055762;28;20024;-77
2023/06/29 01:18:07;;;;;;;1.02;1.02;;;15.20;90.50;;;;;;5074685;28;20033;-77
2023/06/29 01:20:34;;;;;;;1.08;0.73;;;15.20;90.60;;;;;;5074743;28;20481;-76
2023/06/29 01:23:17;;;;;;;1.00;1.00;;;15.20;90.80;;;;;;5087876;28;20466;-76
2023/06/29 01:25:43;;;;;;;0.88;0.88;;;15.20;90.80;;;;;;5095966;28;20035;-77
2023/06/29 01:28:09;;;;;;;1.30;1.20;;;15.10;90.80;;;;;;5078063;28;20488;-76
2023/06/29 01:30:48;;;;;;;1.10;1.00;;;15.10;90.90;;;;;;5088689;28;20030;-76
2023/06/29 01:33:22;;;;;;;0.65;0.65;;;15.10;91.00;;;;;;5076295;28;20052;-76
2023/06/29 01:35:52;;;;;;;0.70;0.70;;;15.10;91.10;;;;;;5075622;28;20103;-76
2023/06/29 01:38:26;;;;;;;0.90;0.90;;;15.10;91.00;;;;;;5057654;28;20027;-76
2023/06/29 01:40:55;;;;;;;1.35;1.30;;;15.10;91.10;;;;;;5076615;28;20074;-77
2023/06/29 01:43:21;;;;;;;0.90;0.90;;;15.00;91.10;;;;;;5076446;28;20035;-76
2023/06/29 01:45:48;;;;;;;1.35;1.00;;;15.00;91.20;;;;;;5074989;28;20226;-76
2023/06/29 01:48:14;;;;;;;1.00;0.93;;;14.90;91.30;;;;;;5077787;28;20540;-77
2023/06/29 01:50:40;;;;;;;0.80;0.80;;;14.90;91.50;;;;;;5057331;28;20051;-76
2023/06/29 01:53:06;;;;;;;1.23;1.00;;;14.90;91.60;;;;;;5088122;28;20103;-77
2023/06/29 01:55:32;;;;;;;1.15;0.90;;;14.90;91.60;;;;;;5077850;28;20077;-77
2023/06/29 01:57:58;;;;;;;1.35;1.25;;;14.80;91.70;;;;;;5096108;28;20076;-77
2023/06/29 02:00:24;;;;;;;1.05;0.88;;;14.80;91.70;;;;;;5095589;28;20062;-77
2023/06/29 02:02:49;;;;;;;1.02;0.98;;;14.80;91.90;;;;;;5095774;28;20060;-77
2023/06/29 02:05:15;;;;;;;0.63;0.63;;;14.70;92.00;;;;;;5075306;28;20116;-77
2023/06/29 02:07:41;;;;;;;0.80;0.80;;;14.70;92.20;;;;;;5075595;28;20526;-77
2023/06/29 02:10:07;;;;;;;1.08;0.90;;;14.70;92.30;;;;;;5075047;28;20045;-77
2023/06/29 02:12:33;;;;;;;1.30;0.90;;;14.60;92.40;;;;;;5075145;28;20447;-77
2023/06/29 02:14:58;;;;;;;0.77;0.77;;;14.60;92.40;;;;;;5075085;28;20056;-77
2023/06/29 02:17:24;;;;;;;0.80;0.80;;;14.60;92.60;;;;;;5075067;28;20064;-77
2023/06/29 02:19:50;;;;;;;0.88;0.88;;;14.60;92.70;;;;;;5056629;28;20040;-77
2023/06/29 02:22:15;;;;;;;0.70;0.70;;;14.60;92.80;;;;;;5078818;28;20020;-76
2023/06/29 02:24:41;;;;;;;0.88;0.88;;;14.60;92.90;;;;;;5074718;28;20031;-76
2023/06/29 02:27:06;;;;;;;0.50;0.50;;;14.60;92.90;;;;;;5096721;28;20127;-77
2023/06/29 02:29:32;;;;;;;0.85;0.85;;;14.60;93.00;;;;;;5110765;28;20096;-77
2023/06/29 02:31:58;;;;;;;0.90;0.90;;;14.60;93.10;;;;;;5099939;28;20039;-77
2023/06/29 02:34:24;;;;;;;0.70;0.70;;;14.60;93.00;;;;;;5095866;28;20044;-77
2023/06/29 02:36:49;;;;;;;1.02;0.85;;;14.50;93.00;;;;;;5083291;28;20115;-77
2023/06/29 02:39:15;;;;;;;1.10;1.00;;;14.50;93.20;;;;;;5086404;28;20012;-77
2023/06/29 02:41:41;;;;;;;0.80;0.80;;;14.50;93.20;;;;;;5076483;28;20016;-76
2023/06/29 02:44:07;;;;;;;1.42;0.98;;;14.50;93.20;;;;;;5076762;28;20035;-77
2023/06/29 02:46:32;;;;;;;1.15;1.05;;;14.50;93.30;;;;;;5075653;28;20016;-77
2023/06/29 02:48:58;;;;;;;1.23;1.00;;;14.50;93.40;;;;;;5076230;28;20032;-77
2023/06/29 02:51:24;;;;;;;0.90;0.90;;;14.40;93.60;;;;;;5082163;28;20108;-76
2023/06/29 02:53:49;;;;;;;0.93;0.93;;;14.40;93.70;;;;;;5061142;28;20381;-76
2023/06/29 02:56:15;;;;;;;0.85;0.85;;;14.40;93.80;;;;;;5073542;28;20028;-76
2023/06/29 02:58:41;;;;;;;0.73;0.73;;;14.40;93.90;;;;;;5075597;28;20520;-77
2023/06/29 03:01:06;;;;;;;0.80;0.80;;;14.40;93.90;;;;;;5056373;28;20513;-77
2023/06/29 03:03:32;;;;;;;0.98;0.98;;;14.40;93.80;;;;;;5074356;28;20481;-77
2023/06/29 03:05:58;;;;;;;0.73;0.73;;;14.40;93.80;;;;;;5069276;28;20510;-76
2023/06/29 03:08:24;;;;;;;0.88;0.88;;;14.40;93.90;;;;;;5073157;28;20175;-77
2023/06/29 03:10:49;;;;;;;1.10;1.00;;;14.30;94.00;;;;;;5074892;28;20027;-77
2023/06/29 03:13:15;;;;;;;1.20;1.10;;;14.40;94.10;;;;;;5074562;28;20155;-77
2023/06/29 03:15:40;;;;;;;0.88;0.88;;;14.30;94.20;;;;;;5073420;28;20027;-76
2023/06/29 03:18:06;;;;;;;1.30;1.20;;;14.30;94.10;;;;;;5074886;28;20048;-77
2023/06/29 03:20:32;;;;;;;1.08;1.00;;;14.30;94.20;;;;;;5075598;28;20033;-77
2023/06/29 03:22:57;;;;;;;1.40;1.30;;;14.20;94.30;;;;;;5089117;28;20020;-77
2023/06/29 03:25:23;;;;;;;0.95;0.95;;;14.20;94.40;;;;;;5076666;28;20035;-77
2023/06/29 03:27:49;;;;;;;0.90;0.90;;;14.20;94.50;;;;;;5075886;28;20028;-76
2023/06/29 03:30:15;;;;;;;0.90;0.90;;;14.20;94.50;;;;;;5074178;28;20028;-76
2023/06/29 03:32:41;;;;;;;1.00;1.00;;;14.20;94.60;;;;;;5075127;28;20021;-75
2023/06/29 03:35:07;;;;;;;0.80;0.80;;;14.20;94.70;;;;;;5075531;28;20043;-74
2023/06/29 03:37:33;;;;;;;1.40;0.80;;;14.20;94.70;;;;;;5073444;28;20028;-77
2023/06/29 03:39:59;;;;;;;0.90;0.90;;;14.20;94.80;;;;;;5058092;28;20029;-76
2023/06/29 03:42:25;;;;;;;0.88;0.88;;;14.30;94.90;;;;;;5060863;28;20028;-77
2023/06/29 03:44:51;;;;;;;0.85;0.85;;;14.40;94.70;;;;;;5061687;28;20025;-77
2023/06/29 03:47:17;;;;;;;0.80;0.80;;;14.40;94.60;;;;;;5058649;28;20067;-77
2023/06/29 03:49:43;;;;;;;0.93;0.93;;;14.40;94.60;;;;;;5061104;28;20080;-76
2023/06/29 03:52:08;;;;;;;1.00;0.90;;;14.40;94.40;;;;;;5089071;28;20027;-78
2023/06/29 03:54:34;;;;;;;0.90;0.90;;;14.40;94.30;;;;;;5079411;28;20035;-77
2023/06/29 03:57:01;;;;;;;0.75;0.75;;;14.40;94.30;;;;;;5085864;28;20420;-76
2023/06/29 03:59:28;;;;;;;0.90;0.90;;;14.40;94.40;;;;;;5108114;28;20083;-76
2023/06/29 04:01:59;;;;;;;0.88;0.70;;;14.40;94.50;;;;;;5088033;28;20028;-76
2023/06/29 04:04:25;;;;;;;0.60;0.60;;;14.40;94.40;;;;;;5072797;28;20024;-75
2023/06/29 04:06:51;;;;;;;0.82;0.82;;;14.50;94.50;;;;;;5072275;28;20701;-77
2023/06/29 04:09:16;;;;;;;0.65;0.65;;;14.50;94.50;;;;;;5075243;28;20024;-77
2023/06/29 04:11:42;;;;;;;0.90;0.90;;;14.50;94.40;;;;;;5076747;28;20029;-77
2023/06/29 04:14:07;;;;;;;0.68;0.68;;;14.50;94.40;;;;;;5074879;28;20029;-77
2023/06/29 04:16:34;;;;;;;0.95;0.95;;;14.50;94.50;;;;;;5070681;28;20046;-75
2023/06/29 04:18:59;;;;;;;0.82;0.82;;;14.50;94.40;;;;;;5052886;28;20090;-76
2023/06/29 04:21:25;;;;;;;1.17;0.77;;;14.50;94.30;;;;;;5073246;28;20464;-77
2023/06/29 04:23:51;;;;;;;0.65;0.65;;;14.60;94.30;;;;;;5083388;28;20145;-76
2023/06/29 04:26:16;;;;;;;0.73;0.73;;;14.60;94.10;;;;;;5091509;28;20016;-76
2023/06/29 04:28:44;;;;;;;1.23;1.20;;;14.70;94.10;;;;;;5074129;28;20024;-76
2023/06/29 04:31:11;;;;;;;0.95;0.93;;;14.70;94.00;;;;;;5073562;28;20028;-76
2023/06/29 04:33:37;;;;;;;0.80;0.80;;;14.80;93.80;;;;;;5080870;28;20112;-78
2023/06/29 04:36:03;;;;;;;0.70;0.70;;;14.80;93.70;;;;;;5070773;28;20100;-77
2023/06/29 04:38:29;;;;;;;0.57;0.57;;;14.90;93.70;;;;;;5071865;28;20090;-76
2023/06/29 04:41:04;;;;;;;0.98;0.98;;;15.00;93.50;;;;;;5053389;28;20401;-76
2023/06/29 04:43:31;;;;;;;1.25;1.15;;;15.00;93.40;;;;;;5072106;28;20104;-77
2023/06/29 04:45:59;;;;;;;0.70;0.70;;;15.10;93.30;;;;;;5071470;28;20477;-76
2023/06/29 04:48:36;;;;;;;0.65;0.65;;;15.20;93.10;;;;;;5072592;28;20048;-76
2023/06/29 04:51:05;;;;;;;1.13;1.02;;;15.30;92.90;;;;;;5075341;28;20508;-76
2023/06/29 04:53:32;;;;;;;0.75;0.75;;;15.40;92.80;;;;;;5065837;28;20028;-76
2023/06/29 04:55:58;;;;;;;0.77;0.77;;;15.50;92.60;;;;;;5076493;28;20092;-76
2023/06/29 04:58:23;;;;;;;1.00;1.00;;;15.50;92.30;;;;;;5065625;28;20139;-75
2023/06/29 05:00:49;;;;;;;0.80;0.80;;;15.60;92.20;;;;;;5076114;28;20060;-74
2023/06/29 05:03:15;;;;;;;0.73;0.73;;;15.80;92.10;;;;;;5075709;28;20020;-75
2023/06/29 05:05:41;;;;;;;0.75;0.73;;;15.90;92.00;;;;;;5075608;28;20028;-77
2023/06/29 05:08:06;;;;;;;0.93;0.82;;;16.00;91.40;;;;;;5075858;28;20048;-77
2023/06/29 05:10:33;;;;;;;0.98;0.98;;;16.40;91.50;;;;;;5075614;28;20541;-75
2023/06/29 05:12:58;;;;;;;0.80;0.80;;;18.00;90.30;;;;;;5076066;28;20103;-76
2023/06/29 05:15:24;;;;;;;0.75;0.75;;;20.60;83.80;;;;;;5075040;28;20063;-77
2023/06/29 05:17:49;;;;;;;0.57;0.57;;;23.10;72.90;;;;;;5076084;28;20453;-76
2023/06/29 05:20:17;;;;;;;0.60;0.60;;;24.90;65.10;;;;;;5057394;28;20029;-76
2023/06/29 05:22:43;;;;;;;0.52;0.52;;;;;;;;;;5085407;28;20033;-76
2023/06/29 05:25:09;;;;;;;0.63;0.50;;;28.10;53.60;;;;;;5096520;28;20032;-76
2023/06/29 05:27:35;;;;;;;0.52;0.52;;;29.20;51.20;;;;;;5098356;28;20441;-76
2023/06/29 05:30:00;;;;;;;0.60;0.60;;;30.10;48.40;;;;;;5076818;28;20085;-77
2023/06/29 05:32:26;;;;;;;0.50;0.50;;;30.70;47.00;;;;;;5075965;28;20108;-77
2023/06/29 05:34:53;;;;;;;0.60;0.60;;;;;;;;;;5075906;28;20473;-76
2023/06/29 05:37:19;;;;;;;0.60;0.50;;;;;;;;;;5076877;28;20033;-76
2023/06/29 05:39:45;;;;;;;0.60;0.60;;;;;;;;;;5076530;28;20070;-76
2023/06/29 05:42:12;;;;;;;0.60;0.60;;;;;;;;;;5076507;28;20047;-76
2023/06/29 05:44:38;;;;;;;0.63;0.63;;;;;;;;;;5058405;28;20030;-77
2023/06/29 05:47:04;;;;;;;0.82;0.82;;;;;;;;;;5076842;28;20398;-77
2023/06/29 05:49:30;;;;;;;0.60;0.60;;;;;;;;;;5058947;28;20070;-76
2023/06/29 05:51:56;;;;;;;0.52;0.52;;;;;;;;;;5085866;28;20087;-77
2023/06/29 05:54:22;;;;;;;1.05;0.95;;;;;;;;;;5071957;28;20035;-77
2023/06/29 05:56:48;;;;;;;0.70;0.70;;;;;;;;;;5072073;28;20027;-77
2023/06/29 05:59:15;;;;;;;0.68;0.68;;;;;;;;;;5074522;28;20021;-77
2023/06/29 06:01:41;;;;;;;0.63;0.63;;;;;;;;;;5074265;28;20016;-76
2023/06/29 06:04:07;;;;;;;0.70;0.70;;;;;;;;;;5073813;28;20385;-76
2023/06/29 06:06:33;;;;;;;0.80;0.80;;;;;;;;;;5072096;28;20021;-75
2023/06/29 06:09:00;;;;;;;0.80;0.80;;;;;;;;;;5079326;28;20020;-76
2023/06/29 06:11:27;;;;;;;0.80;0.80;;;;;;;;;;5083938;28;20021;-76
2023/06/29 06:13:53;;;;;;;0.80;0.80;;;;;;;;;;5098100;22;20040;-76
2023/06/29 06:16:19;;;;;;;0.73;0.73;;;;;;;;;;5100017;28;20024;-77
2023/06/29 06:18:45;;;;;;;0.63;0.63;;;;;;;;;;5089502;28;20032;-77
2023/06/29 06:21:11;;;;;;;0.65;0.65;;;;;;;;;;5115151;28;20035;-78
2023/06/29 06:23:37;;;;;;;0.80;0.80;;;;;;;;;;5107139;28;20074;-77
2023/06/29 06:26:03;;;;;;;0.50;0.50;;;;;;;;;;5072176;28;20067;-77
2023/06/29 06:28:29;;;;;;;0.45;0.45;;;;;;;;;;5054684;28;20092;-78
2023/06/29 06:30:56;;;;;;;0.68;0.68;;;;;;;;;;5088264;28;20227;-77
2023/06/29 06:33:21;;;;;;;0.70;0.70;;;36.70;36.00;;;;;;5083646;28;20063;-77
2023/06/29 06:35:47;;;;;;;0.60;0.60;;;36.40;36.10;;;;;;5078558;28;20092;-79
2023/06/29 06:38:14;;;;;;;0.60;0.60;;;36.30;36.10;;;;;;5055114;28;20377;-78
2023/06/29 06:40:40;;;;;;;0.52;0.52;;;36.50;36.30;;;;;;5068485;28;20027;-80
2023/06/29 06:43:05;;;;;;;0.70;0.70;;;36.70;35.90;;;;;;5061854;28;20092;-76
2023/06/29 06:45:31;;;;;;;0.63;0.63;;;36.90;35.80;;;;;;5058099;28;20457;-80
2023/06/29 06:47:57;;;;;;;0.90;0.90;;;36.60;35.10;;;;;;5065130;28;20052;-79
2023/06/29 06:50:22;;;;;;;0.80;0.80;;;36.10;35.80;;;;;;5072518;28;20080;-78
2023/06/29 06:52:48;;;;;;;1.23;1.13;;;35.90;35.60;;;;;;5077857;28;20032;-79
2023/06/29 06:55:14;;;;;;;1.38;1.23;;;35.20;35.90;;;;;;5060123;28;20485;-80
2023/06/29 06:57:39;;;;;;;2.80;1.20;;;34.90;36.70;;;;;;5079481;28;20419;-79
2023/06/29 07:00:08;;;;;;;1.08;1.08;;;35.40;36.90;;;;;;5078121;28;20128;-80
2023/06/29 07:02:34;;;;;;;1.20;1.20;;;35.70;36.20;;;;;;5060132;28;20028;-79
2023/06/29 07:05:00;;;;;;;1.20;1.20;;;35.30;35.90;;;;;;5078573;28;20024;-78
2023/06/29 07:07:26;;;;;;;1.00;1.00;;;35.30;36.60;;;;;;5059559;28;20024;-78
2023/06/29 07:09:51;;;;;;;0.93;0.93;;;35.50;36.10;;;;;;5073641;28;20025;-77
2023/06/29 07:12:17;;;;;;;1.00;1.00;;;35.40;35.80;;;;;;5066284;28;20374;-78
2023/06/29 07:14:43;;;;;;;0.90;0.90;;;35.10;36.10;;;;;;5055805;28;20028;-78
2023/06/29 07:17:08;;;;;;;1.08;1.08;;;35.20;36.20;;;;;;5038512;28;20082;-78
2023/06/29 07:19:34;;;;;;;1.00;1.00;;;35.00;35.80;;;;;;5058206;28;20032;-81
2023/06/29 07:22:00;;;;;;;0.70;0.70;;;35.00;35.60;;;;;;5082033;28;20043;-79
2023/06/29 07:24:25;;;;;;;0.85;0.85;;;34.00;35.60;;;;;;5078727;28;20163;-77
2023/06/29 07:26:51;;;;;;;0.70;0.70;;;32.00;36.90;;;;;;5046869;28;20090;-77
2023/06/29 07:29:17;;;;;;;1.25;1.20;;;;;;;;;;5068465;28;20035;-80
2023/06/29 07:31:43;;;;;;;1.38;1.20;;;27.70;41.30;;;;;;5064079;28;20028;-78
2023/06/29 07:34:09;;;;;;;0.95;0.93;;;26.20;44.30;;;;;;5058062;28;20025;-77
2023/06/29 07:36:36;;;;;;;0.77;0.77;;;25.10;46.00;;;;;;5038394;28;20132;-77
2023/06/29 07:39:02;;;;;;;1.08;1.00;;;24.40;47.60;;;;;;5055588;28;20021;-78
2023/06/29 07:41:28;;;;;;;1.25;1.00;;;23.90;48.70;;;;;;5066003;28;20468;-79
2023/06/29 07:43:57;;;;;;;3.38;1.52;;;23.50;49.20;;;;;;5076690;28;20051;-77
2023/06/29 07:46:23;;;;;;;1.20;1.15;;;23.10;49.30;;;;;;5076742;28;20065;-78
2023/06/29 07:48:50;;;;;;;1.30;1.02;;;22.90;49.60;;;;;;5077490;28;20017;-77
2023/06/29 07:51:16;;;;;;;1.20;1.10;;;22.80;49.70;;;;;;5070643;28;20033;-79
2023/06/29 07:53:42;;;;;;;1.75;1.30;;;22.80;49.60;;;;;;5078497;28;20025;-79
2023/06/29 07:56:08;;;;;;;1.02;1.02;;;22.70;49.10;;;;;;5041299;28;20469;-77
2023/06/29 07:58:35;;;;;;;1.23;1.00;;;22.70;49.10;;;;;;5058702;28;20049;-79
2023/06/29 08:01:01;;;;;;;1.02;0.90;;;22.70;49.20;;;;;;5039740;28;20120;-76
2023/06/29 08:03:28;;;;;;;1.00;1.00;;;22.80;49.50;;;;;;5058439;28;20059;-78
2023/06/29 08:05:54;;;;;;;0.60;0.60;;;22.80;49.60;;;;;;5037973;28;20112;-78
2023/06/29 08:08:20;;;;;;;1.40;1.10;;;22.90;49.60;;;;;;5065390;28;20024;-78
2023/06/29 08:10:47;;;;;;;1.42;1.20;;;22.90;49.50;;;;;;5080320;28;20038;-76
2023/06/29 08:13:13;;;;;;;2.35;1.33;;;23.00;49.60;;;;;;5076561;28;20401;-77
2023/06/29 08:15:39;;;;;;;1.40;1.00;;;23.10;49.30;;;;;;5075315;28;20027;-78
2023/06/29 08:18:04;;;;;;;0.85;0.85;;;23.10;49.20;;;;;;5075950;28;20074;-77
2023/06/29 08:20:30;;;;;;;1.08;1.08;;;23.20;49.50;;;;;;5079587;28;20019;-75
2023/06/29 08:22:56;;;;;;;2.20;1.00;;;23.30;49.50;;;;;;5088320;28;20115;-76
2023/06/29 08:25:22;;;;;;;1.58;1.30;;;23.40;49.00;;;;;;5076737;28;20028;-78
2023/06/29 08:27:49;;;;;;;3.22;1.75;;;23.30;48.40;;;;;;5059378;28;20112;-78
2023/06/29 08:30:15;;;;;;;1.05;1.02;;;23.30;48.50;;;;;;5077168;28;20027;-78
2023/06/29 08:32:43;;;;;;;2.42;1.50;;;23.40;48.20;;;;;;5073607;28;20025;-79
2023/06/29 08:35:09;;;;;;;1.45;1.35;;;23.30;48.00;;;;;;5061738;28;20021;-77
2023/06/29 08:37:34;;;;;;;1.40;1.30;;;23.50;47.80;;;;;;5073294;28;20031;-78
2023/06/29 08:40:00;;;;;;;1.25;1.08;;;23.50;47.40;;;;;;5070690;28;20092;-79
2023/06/29 08:42:27;;;;;;;2.03;1.15;;;23.60;47.30;;;;;;5065950;28;20071;-78
2023/06/29 08:44:53;;;;;;;1.50;1.33;;;23.70;47.30;;;;;;5091401;28;20070;-78
2023/06/29 08:47:20;;;;;;;1.70;1.20;;;23.70;47.30;;;;;;5088954;28;20020;-78
2023/06/29 08:49:46;;;;;;;1.50;1.40;;;23.70;46.50;;;;;;5085145;28;20051;-78
2023/06/29 08:52:15;;;;;;;1.63;1.30;;;23.70;46.10;;;;;;5087655;28;20016;-78
2023/06/29 08:54:42;;;;;;;4.32;1.60;;;23.70;45.90;;;;;;5065380;28;20476;-79
2023/06/29 08:57:09;;;;;;;1.35;1.20;;;23.80;45.60;;;;;;5046772;28;20025;-80
2023/06/29 08:59:37;;;;;;;1.23;1.10;;;24.00;45.10;;;;;;5069473;28;20027;-80
2023/06/29 09:02:05;;;;;;;1.38;1.17;;;24.20;44.60;;;;;;5066305;28;20119;-78
2023/06/29 09:04:30;;;;;;;1.63;1.40;;;24.20;43.90;;;;;;5066324;28;20453;-79
2023/06/29 09:06:56;;;;;;;1.55;1.05;;;24.30;44.10;;;;;;5065878;28;20020;-78
2023/06/29 09:09:23;;;;;;;0.88;0.88;;;24.40;44.20;;;;;;5062975;28;20024;-77
2023/06/29 09:11:49;;;;;;;3.13;1.45;;;24.60;43.80;;;;;;5065247;28;20029;-78
2023/06/29 09:14:15;;;;;;;2.35;0.80;;;24.60;43.40;;;;;;5047426;28;20037;-78
2023/06/29 09:16:52;;;;;;;1.17;1.10;;;24.60;43.00;;;;;;5046162;28;20025;-77
2023/06/29 09:19:19;;;;;;;3.08;1.35;;;24.80;43.10;;;;;;5045267;28;20025;-78
2023/06/29 09:21:48;;;;;;;1.38;1.25;;;24.90;43.00;;;;;;5073282;28;20021;-78
2023/06/29 09:24:27;;;;;;;1.25;1.15;;;25.00;42.60;;;;;;5062009;28;20389;-78
2023/06/29 09:26:54;;;;;;;2.63;1.40;;;25.10;42.30;;;;;;5076684;28;20427;-78
2023/06/29 09:29:25;;;;;;;1.88;1.20;;;25.10;41.80;;;;;;5066490;28;20081;-79
2023/06/29 09:31:58;;;;;;;2.30;1.25;;;25.10;41.70;;;;;;5037810;28;20032;-78
2023/06/29 09:34:27;;;;;;;1.15;1.10;;;25.00;42.00;;;;;;5057406;28;20068;-79
2023/06/29 09:36:54;;;;;;;1.10;1.10;;;25.10;42.60;;;;;;5076875;28;20031;-79
2023/06/29 09:39:21;;;;;;;1.00;1.00;;;25.20;42.60;;;;;;5076906;28;20025;-78
2023/06/29 09:41:47;;;;;;;1.00;1.00;;;25.40;42.40;;;;;;5081497;28;20021;-79
2023/06/29 09:44:16;;;;;;;1.00;1.00;;;25.60;42.20;;;;;;5085661;28;20201;-79
2023/06/29 09:46:41;;;;;;;1.33;0.82;;;25.70;41.70;;;;;;5082214;28;20048;-78
2023/06/29 09:49:10;;;;;;;1.63;1.38;;;25.90;41.70;;;;;;5086873;28;20028;-77
2023/06/29 09:51:36;;;;;;;2.40;1.20;;;;;;;;;;5090728;28;20298;-78
2023/06/29 09:54:05;;;;;;;1.02;1.02;;;25.80;40.80;;;;;;5083247;28;20034;-77
2023/06/29 09:56:33;;;;;;;1.50;1.30;;;25.90;41.30;;;;;;5088709;28;20016;-78
2023/06/29 09:59:02;;;;;;;1.13;1.08;;;25.90;41.20;;;;;;5061722;28;20020;-79
2023/06/29 10:01:28;;;;;;;1.63;1.30;;;26.00;41.00;;;;;;5083144;28;20029;-79
2023/06/29 10:03:57;;;;;;;1.33;1.02;;;25.90;41.10;;;;;;5064422;28;20039;-77
2023/06/29 10:06:34;;;;;;;1.48;1.38;;;26.00;41.30;;;;;;5083060;28;20028;-77
2023/06/29 10:09:01;;;;;;;1.17;1.08;;;26.10;41.50;;;;;;5046617;28;20167;-79
2023/06/29 10:11:34;;;;;;;2.67;1.50;;;26.40;41.40;;;;;;5060319;28;20032;-78
2023/06/29 10:14:03;;;;;;;1.33;1.23;;;26.60;41.30;;;;;;5057767;28;20052;-78
2023/06/29 10:16:42;;;;;;;1.27;1.10;;;26.70;40.60;;;;;;5051301;28;20016;-78
2023/06/29 10:19:10;;;;;;;1.50;1.40;;;26.60;40.20;;;;;;5060509;28;20077;-78
2023/06/29 10:21:36;;;;;;;0.80;0.80;;;26.60;40.20;;;;;;5090344;28;20020;-77
2023/06/29 10:24:03;;;;;;;2.10;1.10;;;26.60;40.20;;;;;;5083715;28;20079;-78
2023/06/29 10:26:29;;;;;;;1.27;1.17;;;26.80;40.10;;;;;;5080463;28;20377;-79
2023/06/29 10:28:55;;;;;;;1.38;0.98;;;27.00;39.70;;;;;;5079049;28;20024;-79
2023/06/29 10:31:32;;;;;;;1.10;1.00;;;27.10;39.30;;;;;;5061124;28;20028;-79
2023/06/29 10:33:58;;;;;;;1.00;1.00;;;27.10;39.40;;;;;;5080076;28;20035;-79
2023/06/29 10:36:24;;;;;;;1.30;1.20;;;27.10;39.00;;;;;;5080862;28;20028;-80
2023/06/29 10:38:50;;;;;;;1.55;1.15;;;27.10;40.10;;;;;;5064302;28;20025;-77
2023/06/29 10:41:26;;;;;;;1.35;1.00;;;27.20;40.00;;;;;;5077680;28;20043;-77
2023/06/29 10:44:00;;;;;;;2.45;1.10;;;27.40;39.70;;;;;;5080697;28;20452;-77
2023/06/29 10:46:46;;;;;;;1.63;1.25;;;27.50;39.90;;;;;;5061969;28;20035;-80
2023/06/29 10:49:24;;;;;;;1.20;1.17;;;27.40;39.70;;;;;;5058993;28;20040;-78
2023/06/29 10:52:04;;;;;;;1.10;1.10;;;27.40;39.90;;;;;;5084073;28;20028;-76
2023/06/29 10:54:30;;;;;;;0.93;0.93;;;27.60;40.00;;;;;;5078182;28;20028;-78
2023/06/29 10:57:01;;;;;;;1.10;1.00;;;27.70;40.40;;;;;;5078386;28;20102;-77
2023/06/29 10:59:31;;;;;;;1.60;1.17;;;27.80;40.00;;;;;;5058519;28;20397;-77
2023/06/29 11:01:58;;;;;;;1.88;1.40;;;28.00;40.40;;;;;;5040262;28;20108;-76
2023/06/29 11:04:24;;;;;;;1.40;1.30;;;28.00;40.00;;;;;;5056501;28;20119;-77
2023/06/29 11:06:50;;;;;;;1.98;1.52;;;27.80;39.30;;;;;;5055396;28;20036;-78
2023/06/29 11:09:16;;;;;;;1.27;1.10;;;27.70;39.40;;;;;;5072418;28;20048;-78
2023/06/29 11:11:47;;;;;;;1.00;1.00;;;27.80;39.70;;;;;;5077277;28;20530;-78
2023/06/29 11:14:13;;;;;;;1.85;1.25;;;27.90;39.40;;;;;;5077189;28;20354;-78
2023/06/29 11:16:39;;;;;;;1.30;1.20;;;28.10;39.20;;;;;;5077090;28;20032;-77
2023/06/29 11:19:05;;;;;;;0.98;0.98;;;28.20;38.70;;;;;;5075690;28;20025;-78
2023/06/29 11:21:31;;;;;;;0.93;0.88;;;28.40;38.80;;;;;;5082010;28;20077;-78
2023/06/29 11:23:57;;;;;;;1.30;1.20;;;28.50;38.20;;;;;;5088797;28;20130;-76
2023/06/29 11:26:23;;;;;;;1.50;1.40;;;28.50;38.30;;;;;;5106250;28;20036;-76
2023/06/29 11:28:53;;;;;;;1.50;1.45;;;28.40;37.70;;;;;;5098000;28;20557;-77
2023/06/29 11:31:24;;;;;;;1.77;1.55;;;28.10;38.20;;;;;;5097412;28;20099;-76
2023/06/29 11:33:50;;;;;;;1.30;1.20;;;28.10;37.90;;;;;;5073515;28;20021;-76
2023/06/29 11:36:36;;;;;;;1.75;0.90;;;28.10;38.40;;;;;;5038951;28;20054;-78
2023/06/29 11:39:07;;;;;;;1.02;1.02;;;28.20;37.90;;;;;;5061475;28;20036;-77
2023/06/29 11:41:33;;;;;;;1.10;1.00;;;28.30;38.00;;;;;;5080917;28;20048;-77
2023/06/29 11:44:03;;;;;;;1.42;1.10;;;28.40;37.60;;;;;;5065718;28;20017;-77
2023/06/29 11:46:38;;;;;;;2.08;1.33;;;28.40;38.10;;;;;;5083566;28;20027;-78
2023/06/29 11:49:05;;;;;;;0.98;0.98;;;28.50;38.40;;;;;;5076898;28;20483;-79
2023/06/29 11:51:33;;;;;;;1.42;1.33;;;28.70;37.90;;;;;;5077225;28;20056;-77
2023/06/29 11:53:59;;;;;;;1.30;1.20;;;;;;;;;;5083653;28;20069;-77
2023/06/29 11:56:26;;;;;;;1.20;1.20;;;28.90;37.20;;;;;;5078426;28;20115;-78
2023/06/29 11:58:52;;;;;;;2.08;1.50;;;29.10;37.60;;;;;;5067111;28;20033;-77
2023/06/29 12:01:18;;;;;;;1.10;1.10;;;29.00;37.20;;;;;;5074642;28;20021;-77
2023/06/29 12:03:46;;;;;;;1.83;1.20;;;29.00;37.20;;;;;;5076441;28;20036;-78
2023/06/29 12:06:12;;;;;;;1.58;1.38;;;29.00;37.30;;;;;;5073632;28;20052;-78
2023/06/29 12:08:38;;;;;;;2.25;1.63;;;28.90;37.00;;;;;;5076333;28;20016;-78
2023/06/29 12:11:05;;;;;;;1.45;1.35;;;28.90;36.80;;;;;;5074458;28;20506;-79
2023/06/29 12:13:30;;;;;;;1.65;1.55;;;28.80;37.00;;;;;;5075296;28;20033;-78
2023/06/29 12:16:02;;;;;;;1.88;1.33;;;29.00;37.20;;;;;;5075732;28;20383;-79
2023/06/29 12:18:28;;;;;;;1.23;1.23;;;29.10;36.90;;;;;;5077432;28;20024;-78
2023/06/29 12:20:54;;;;;;;2.35;1.45;;;29.10;36.40;;;;;;5078811;28;20415;-77
2023/06/29 12:23:21;;;;;;;1.27;1.17;;;29.10;37.20;;;;;;5086403;28;20020;-79
2023/06/29 12:25:51;;;;;;;1.70;1.60;;;29.00;37.70;;;;;;5104254;28;20031;-78
2023/06/29 12:28:17;;;;;;;1.20;1.20;;;29.10;37.70;;;;;;5096957;28;20075;-78
2023/06/29 12:30:43;;;;;;;2.10;1.35;;;29.10;37.70;;;;;;5091500;28;20431;-78
2023/06/29 12:33:11;;;;;;;1.20;1.20;;;29.20;37.60;;;;;;5074973;28;20485;-80
2023/06/29 12:35:37;;;;;;;1.00;1.00;;;29.40;37.70;;;;;;5046698;28;20032;-78
2023/06/29 12:38:03;;;;;;;0.93;0.93;;;29.80;37.60;;;;;;5073655;28;20028;-80
2023/06/29 12:40:30;;;;;;;1.20;1.10;;;30.10;36.90;;;;;;5076630;28;20012;-79
2023/06/29 12:42:56;;;;;;;1.10;1.10;;;30.00;36.70;;;;;;5078192;28;20021;-78
2023/06/29 12:45:22;;;;;;;1.40;1.30;;;29.90;36.80;;;;;;5076425;28;20028;-79
2023/06/29 12:47:48;;;;;;;1.17;1.17;;;29.80;37.20;;;;;;5076543;28;20029;-80
2023/06/29 12:50:13;;;;;;;1.70;1.60;;;29.90;37.20;;;;;;5076774;28;20039;-77
2023/06/29 12:52:39;;;;;;;1.20;1.10;;;30.10;37.80;;;;;;5088081;28;20024;-78
2023/06/29 12:55:05;;;;;;;1.65;1.20;;;30.30;37.60;;;;;;5060885;28;20063;-80